sensor_id;sensor_type;location;lat;lon;timestamp;temperature;humidity
13093;DHT22;6612;49.568;11.000;2023-04-15T00:00:43;10.50;55.50
13093;DHT22;6612;49.568;11.000;2023-04-15T00:03:10;10.50;55.60
13093;DHT22;6612;49.568;11.000;2023-04-15T00:05:38;10.50;55.70
13093;DHT22;6612;49.568;11.000;2023-04-15T00:08:05;10.50;55.80
13093;DHT22;6612;49.568;11.000;2023-04-15T00:10:32;10.50;55.80
13093;DHT22;6612;49.568;11.000;2023-04-15T00:13:00;10.50;55.90
13093;DHT22;6612;49.568;11.000;2023-04-15T00:15:30;10.50;56.10
13093;DHT22;6612;49.568;11.000;2023-04-15T00:17:57;10.50;56.10
13093;DHT22;6612;49.568;11.000;2023-04-15T00:20:24;10.50;56.10
13093;DHT22;6612;49.568;11.000;2023-04-15T00:22:51;10.50;56.10
13093;DHT22;6612;49.568;11.000;2023-04-15T00:25:19;10.50;56.20
13093;DHT22;6612;49.568;11.000;2023-04-15T00:27:46;10.50;56.30
13093;DHT22;6612;49.568;11.000;2023-04-15T00:30:14;10.50;56.30
13093;DHT22;6612;49.568;11.000;2023-04-15T00:32:42;10.60;56.50
13093;DHT22;6612;49.568;11.000;2023-04-15T00:35:10;10.60;56.60
13093;DHT22;6612;49.568;11.000;2023-04-15T00:37:37;10.50;56.50
13093;DHT22;6612;49.568;11.000;2023-04-15T00:40:05;10.60;56.60
13093;DHT22;6612;49.568;11.000;2023-04-15T00:42:34;10.60;56.60
13093;DHT22;6612;49.568;11.000;2023-04-15T00:45:02;10.60;56.60
13093;DHT22;6612;49.568;11.000;2023-04-15T00:47:31;10.60;56.60
13093;DHT22;6612;49.568;11.000;2023-04-15T00:50:00;10.60;56.60
13093;DHT22;6612;49.568;11.000;2023-04-15T00:52:27;10.70;56.80
13093;DHT22;6612;49.568;11.000;2023-04-15T00:54:54;10.70;56.80
13093;DHT22;6612;49.568;11.000;2023-04-15T00:57:22;10.70;56.80
13093;DHT22;6612;49.568;11.000;2023-04-15T00:59:50;10.70;56.90
13093;DHT22;6612;49.568;11.000;2023-04-15T01:02:18;10.70;56.90
13093;DHT22;6612;49.568;11.000;2023-04-15T01:04:45;10.70;56.90
13093;DHT22;6612;49.568;11.000;2023-04-15T01:07:14;10.70;56.90
13093;DHT22;6612;49.568;11.000;2023-04-15T01:09:42;10.70;56.90
13093;DHT22;6612;49.568;11.000;2023-04-15T01:12:12;10.70;56.90
13093;DHT22;6612;49.568;11.000;2023-04-15T01:14:40;10.70;56.90
13093;DHT22;6612;49.568;11.000;2023-04-15T01:17:07;10.70;56.90
13093;DHT22;6612;49.568;11.000;2023-04-15T01:19:35;10.70;56.90
13093;DHT22;6612;49.568;11.000;2023-04-15T01:22:02;10.70;56.90
13093;DHT22;6612;49.568;11.000;2023-04-15T01:24:31;10.70;57.50
13093;DHT22;6612;49.568;11.000;2023-04-15T01:27:00;10.70;56.90
13093;DHT22;6612;49.568;11.000;2023-04-15T01:29:28;10.70;56.80
13093;DHT22;6612;49.568;11.000;2023-04-15T01:31:55;10.70;56.80
13093;DHT22;6612;49.568;11.000;2023-04-15T01:34:22;10.70;56.80
13093;DHT22;6612;49.568;11.000;2023-04-15T01:36:49;10.70;56.90
13093;DHT22;6612;49.568;11.000;2023-04-15T01:39:17;10.70;56.90
13093;DHT22;6612;49.568;11.000;2023-04-15T01:41:44;10.70;57.00
13093;DHT22;6612;49.568;11.000;2023-04-15T01:44:12;10.80;57.10
13093;DHT22;6612;49.568;11.000;2023-04-15T01:46:39;10.70;57.10
13093;DHT22;6612;49.568;11.000;2023-04-15T01:49:07;10.70;57.10
13093;DHT22;6612;49.568;11.000;2023-04-15T01:51:35;10.80;57.20
13093;DHT22;6612;49.568;11.000;2023-04-15T01:54:04;10.80;57.20
13093;DHT22;6612;49.568;11.000;2023-04-15T01:56:32;10.70;57.10
13093;DHT22;6612;49.568;11.000;2023-04-15T01:58:59;10.70;57.10
13093;DHT22;6612;49.568;11.000;2023-04-15T02:01:30;10.70;56.60
13093;DHT22;6612;49.568;11.000;2023-04-15T02:03:58;10.70;57.20
13093;DHT22;6612;49.568;11.000;2023-04-15T02:06:26;10.70;57.20
13093;DHT22;6612;49.568;11.000;2023-04-15T02:08:54;10.70;57.30
13093;DHT22;6612;49.568;11.000;2023-04-15T02:11:22;10.70;57.30
13093;DHT22;6612;49.568;11.000;2023-04-15T02:13:50;10.70;57.40
13093;DHT22;6612;49.568;11.000;2023-04-15T02:16:18;10.70;57.40
13093;DHT22;6612;49.568;11.000;2023-04-15T02:18:48;10.70;57.30
13093;DHT22;6612;49.568;11.000;2023-04-15T02:21:17;10.70;57.40
13093;DHT22;6612;49.568;11.000;2023-04-15T02:23:44;10.70;57.20
13093;DHT22;6612;49.568;11.000;2023-04-15T02:26:13;10.70;57.30
13093;DHT22;6612;49.568;11.000;2023-04-15T02:28:41;10.70;57.40
13093;DHT22;6612;49.568;11.000;2023-04-15T02:31:09;10.70;57.40
13093;DHT22;6612;49.568;11.000;2023-04-15T02:33:37;10.70;57.40
13093;DHT22;6612;49.568;11.000;2023-04-15T02:36:06;10.60;57.40
13093;DHT22;6612;49.568;11.000;2023-04-15T02:38:36;10.70;57.50
13093;DHT22;6612;49.568;11.000;2023-04-15T02:41:05;10.70;57.60
13093;DHT22;6612;49.568;11.000;2023-04-15T02:43:33;10.60;57.50
13093;DHT22;6612;49.568;11.000;2023-04-15T02:46:01;10.60;57.50
13093;DHT22;6612;49.568;11.000;2023-04-15T02:48:29;10.70;57.60
13093;DHT22;6612;49.568;11.000;2023-04-15T02:51:12;10.60;57.60
13093;DHT22;6612;49.568;11.000;2023-04-15T02:53:40;10.70;57.80
13093;DHT22;6612;49.568;11.000;2023-04-15T02:56:08;10.60;57.60
13093;DHT22;6612;49.568;11.000;2023-04-15T02:58:36;10.70;57.70
13093;DHT22;6612;49.568;11.000;2023-04-15T03:01:04;10.60;57.60
13093;DHT22;6612;49.568;11.000;2023-04-15T03:03:34;10.70;57.70
13093;DHT22;6612;49.568;11.000;2023-04-15T03:06:02;10.60;57.60
13093;DHT22;6612;49.568;11.000;2023-04-15T03:08:31;10.70;57.70
13093;DHT22;6612;49.568;11.000;2023-04-15T03:10:59;10.70;57.80
13093;DHT22;6612;49.568;11.000;2023-04-15T03:13:27;10.60;57.70
13093;DHT22;6612;49.568;11.000;2023-04-15T03:15:55;10.70;57.80
13093;DHT22;6612;49.568;11.000;2023-04-15T03:18:23;10.70;57.80
13093;DHT22;6612;49.568;11.000;2023-04-15T03:20:51;10.70;57.70
13093;DHT22;6612;49.568;11.000;2023-04-15T03:23:19;10.70;57.80
13093;DHT22;6612;49.568;11.000;2023-04-15T03:25:48;10.60;57.70
13093;DHT22;6612;49.568;11.000;2023-04-15T03:28:16;10.60;57.70
13093;DHT22;6612;49.568;11.000;2023-04-15T03:30:44;10.60;57.70
13093;DHT22;6612;49.568;11.000;2023-04-15T03:33:11;10.60;57.70
13093;DHT22;6612;49.568;11.000;2023-04-15T03:35:39;10.60;57.80
13093;DHT22;6612;49.568;11.000;2023-04-15T03:38:07;10.60;57.80
13093;DHT22;6612;49.568;11.000;2023-04-15T03:40:35;10.60;57.80
13093;DHT22;6612;49.568;11.000;2023-04-15T03:43:04;10.60;58.00
13093;DHT22;6612;49.568;11.000;2023-04-15T03:45:32;10.60;58.00
13093;DHT22;6612;49.568;11.000;2023-04-15T03:48:00;10.50;58.00
13093;DHT22;6612;49.568;11.000;2023-04-15T03:50:28;10.60;58.10
13093;DHT22;6612;49.568;11.000;2023-04-15T03:52:56;10.60;58.10
13093;DHT22;6612;49.568;11.000;2023-04-15T03:55:24;10.60;58.20
13093;DHT22;6612;49.568;11.000;2023-04-15T03:57:52;10.60;58.30
13093;DHT22;6612;49.568;11.000;2023-04-15T04:00:21;10.60;58.30
13093;DHT22;6612;49.568;11.000;2023-04-15T04:02:49;10.60;58.30
13093;DHT22;6612;49.568;11.000;2023-04-15T04:05:17;10.60;58.30
13093;DHT22;6612;49.568;11.000;2023-04-15T04:07:45;10.60;58.30
13093;DHT22;6612;49.568;11.000;2023-04-15T04:10:13;10.60;58.30
13093;DHT22;6612;49.568;11.000;2023-04-15T04:12:41;10.60;58.30
13093;DHT22;6612;49.568;11.000;2023-04-15T04:15:10;10.70;58.40
13093;DHT22;6612;49.568;11.000;2023-04-15T04:17:38;10.60;58.40
13093;DHT22;6612;49.568;11.000;2023-04-15T04:20:06;10.70;58.40
13093;DHT22;6612;49.568;11.000;2023-04-15T04:22:36;10.60;58.40
13093;DHT22;6612;49.568;11.000;2023-04-15T04:25:04;10.70;58.50
13093;DHT22;6612;49.568;11.000;2023-04-15T04:27:31;10.70;58.50
13093;DHT22;6612;49.568;11.000;2023-04-15T04:29:58;10.70;58.50
13093;DHT22;6612;49.568;11.000;2023-04-15T04:32:25;10.70;58.50
13093;DHT22;6612;49.568;11.000;2023-04-15T04:34:54;10.70;58.60
13093;DHT22;6612;49.568;11.000;2023-04-15T04:37:21;10.70;58.60
13093;DHT22;6612;49.568;11.000;2023-04-15T04:39:49;10.70;58.60
13093;DHT22;6612;49.568;11.000;2023-04-15T04:42:16;10.70;58.60
13093;DHT22;6612;49.568;11.000;2023-04-15T04:44:43;10.70;58.60
13093;DHT22;6612;49.568;11.000;2023-04-15T04:47:10;10.70;58.60
13093;DHT22;6612;49.568;11.000;2023-04-15T04:49:37;10.80;58.80
13093;DHT22;6612;49.568;11.000;2023-04-15T04:52:05;10.80;58.80
13093;DHT22;6612;49.568;11.000;2023-04-15T04:54:32;10.80;58.80
13093;DHT22;6612;49.568;11.000;2023-04-15T04:57:00;10.80;59.40
13093;DHT22;6612;49.568;11.000;2023-04-15T04:59:27;10.80;58.80
13093;DHT22;6612;49.568;11.000;2023-04-15T05:01:54;10.80;58.80
13093;DHT22;6612;49.568;11.000;2023-04-15T05:04:21;10.80;58.80
13093;DHT22;6612;49.568;11.000;2023-04-15T05:06:48;10.90;59.00
13093;DHT22;6612;49.568;11.000;2023-04-15T05:09:17;10.90;59.00
13093;DHT22;6612;49.568;11.000;2023-04-15T05:11:44;10.90;59.10
13093;DHT22;6612;49.568;11.000;2023-04-15T05:14:11;10.90;59.00
13093;DHT22;6612;49.568;11.000;2023-04-15T05:16:38;10.90;59.00
13093;DHT22;6612;49.568;11.000;2023-04-15T05:19:05;11.00;59.20
13093;DHT22;6612;49.568;11.000;2023-04-15T05:21:32;11.00;59.10
13093;DHT22;6612;49.568;11.000;2023-04-15T05:23:59;11.00;59.10
13093;DHT22;6612;49.568;11.000;2023-04-15T05:26:27;11.10;59.20
13093;DHT22;6612;49.568;11.000;2023-04-15T05:28:54;11.10;59.30
13093;DHT22;6612;49.568;11.000;2023-04-15T05:31:22;11.10;59.30
13093;DHT22;6612;49.568;11.000;2023-04-15T05:33:49;11.10;59.30
13093;DHT22;6612;49.568;11.000;2023-04-15T05:36:16;11.20;59.50
13093;DHT22;6612;49.568;11.000;2023-04-15T05:38:43;11.20;59.50
13093;DHT22;6612;49.568;11.000;2023-04-15T05:41:10;11.30;59.60
13093;DHT22;6612;49.568;11.000;2023-04-15T05:43:38;11.30;59.50
13093;DHT22;6612;49.568;11.000;2023-04-15T05:46:05;11.40;59.60
13093;DHT22;6612;49.568;11.000;2023-04-15T05:48:33;11.40;59.50
13093;DHT22;6612;49.568;11.000;2023-04-15T05:51:00;11.50;59.60
13093;DHT22;6612;49.568;11.000;2023-04-15T05:53:27;11.50;59.50
13093;DHT22;6612;49.568;11.000;2023-04-15T05:55:54;11.60;59.50
13093;DHT22;6612;49.568;11.000;2023-04-15T05:58:21;11.60;59.40
13093;DHT22;6612;49.568;11.000;2023-04-15T06:00:50;11.70;59.40
13093;DHT22;6612;49.568;11.000;2023-04-15T06:03:17;11.70;59.40
13093;DHT22;6612;49.568;11.000;2023-04-15T06:05:44;11.70;59.30
13093;DHT22;6612;49.568;11.000;2023-04-15T06:08:12;11.80;59.30
13093;DHT22;6612;49.568;11.000;2023-04-15T06:10:39;11.80;59.30
13093;DHT22;6612;49.568;11.000;2023-04-15T06:13:07;11.80;59.30
13093;DHT22;6612;49.568;11.000;2023-04-15T06:15:35;11.90;59.40
13093;DHT22;6612;49.568;11.000;2023-04-15T06:18:04;11.90;59.50
13093;DHT22;6612;49.568;11.000;2023-04-15T06:20:32;12.00;59.50
13093;DHT22;6612;49.568;11.000;2023-04-15T06:22:59;12.00;59.50
13093;DHT22;6612;49.568;11.000;2023-04-15T06:25:27;12.10;59.50
13093;DHT22;6612;49.568;11.000;2023-04-15T06:27:55;12.10;59.40
13093;DHT22;6612;49.568;11.000;2023-04-15T06:30:22;12.10;59.40
13093;DHT22;6612;49.568;11.000;2023-04-15T06:32:50;12.20;59.50
13093;DHT22;6612;49.568;11.000;2023-04-15T06:35:20;12.20;59.40
13093;DHT22;6612;49.568;11.000;2023-04-15T06:37:47;12.30;59.50
13093;DHT22;6612;49.568;11.000;2023-04-15T06:40:16;12.30;59.30
13093;DHT22;6612;49.568;11.000;2023-04-15T06:42:44;12.40;59.40
13093;DHT22;6612;49.568;11.000;2023-04-15T06:45:12;12.40;59.30
13093;DHT22;6612;49.568;11.000;2023-04-15T06:47:40;12.50;59.30
13093;DHT22;6612;49.568;11.000;2023-04-15T06:50:09;12.50;59.40
13093;DHT22;6612;49.568;11.000;2023-04-15T06:52:39;12.50;59.40
13093;DHT22;6612;49.568;11.000;2023-04-15T06:55:07;12.60;59.40
13093;DHT22;6612;49.568;11.000;2023-04-15T06:57:35;12.60;59.40
13093;DHT22;6612;49.568;11.000;2023-04-15T07:00:03;12.70;59.50
13093;DHT22;6612;49.568;11.000;2023-04-15T07:02:32;12.70;59.40
13093;DHT22;6612;49.568;11.000;2023-04-15T07:05:00;12.80;59.50
13093;DHT22;6612;49.568;11.000;2023-04-15T07:07:28;12.90;59.60
13093;DHT22;6612;49.568;11.000;2023-04-15T07:09:57;12.90;59.50
13093;DHT22;6612;49.568;11.000;2023-04-15T07:12:27;13.00;59.40
13093;DHT22;6612;49.568;11.000;2023-04-15T07:14:54;13.00;59.40
13093;DHT22;6612;49.568;11.000;2023-04-15T07:17:21;13.10;59.40
13093;DHT22;6612;49.568;11.000;2023-04-15T07:19:48;13.10;59.20
13093;DHT22;6612;49.568;11.000;2023-04-15T07:22:16;13.20;59.10
13093;DHT22;6612;49.568;11.000;2023-04-15T07:24:43;13.20;59.00
13093;DHT22;6612;49.568;11.000;2023-04-15T07:27:12;13.30;59.10
13093;DHT22;6612;49.568;11.000;2023-04-15T07:29:39;13.30;59.10
13093;DHT22;6612;49.568;11.000;2023-04-15T07:32:06;13.30;59.10
13093;DHT22;6612;49.568;11.000;2023-04-15T07:34:35;13.40;59.30
13093;DHT22;6612;49.568;11.000;2023-04-15T07:37:02;13.40;59.30
13093;DHT22;6612;49.568;11.000;2023-04-15T07:39:29;13.50;59.40
13093;DHT22;6612;49.568;11.000;2023-04-15T07:41:57;13.60;59.60
13093;DHT22;6612;49.568;11.000;2023-04-15T07:44:26;13.60;59.40
13093;DHT22;6612;49.568;11.000;2023-04-15T07:46:53;13.70;59.30
13093;DHT22;6612;49.568;11.000;2023-04-15T07:49:20;13.70;59.10
13093;DHT22;6612;49.568;11.000;2023-04-15T07:51:47;13.80;59.10
13093;DHT22;6612;49.568;11.000;2023-04-15T07:54:15;13.80;59.10
13093;DHT22;6612;49.568;11.000;2023-04-15T07:56:42;13.90;59.20
13093;DHT22;6612;49.568;11.000;2023-04-15T07:59:09;14.00;59.00
13093;DHT22;6612;49.568;11.000;2023-04-15T08:01:38;14.00;59.10
13093;DHT22;6612;49.568;11.000;2023-04-15T08:04:05;14.10;59.00
13093;DHT22;6612;49.568;11.000;2023-04-15T08:06:32;14.20;58.90
13093;DHT22;6612;49.568;11.000;2023-04-15T08:08:59;14.20;58.60
13093;DHT22;6612;49.568;11.000;2023-04-15T08:11:26;14.30;58.60
13093;DHT22;6612;49.568;11.000;2023-04-15T08:13:53;14.30;58.40
13093;DHT22;6612;49.568;11.000;2023-04-15T08:16:22;14.40;58.30
13093;DHT22;6612;49.568;11.000;2023-04-15T08:18:52;14.40;58.00
13093;DHT22;6612;49.568;11.000;2023-04-15T08:21:19;14.40;57.90
13093;DHT22;6612;49.568;11.000;2023-04-15T08:23:49;14.40;57.70
13093;DHT22;6612;49.568;11.000;2023-04-15T08:26:16;14.30;57.50
13093;DHT22;6612;49.568;11.000;2023-04-15T08:28:44;14.30;57.50
13093;DHT22;6612;49.568;11.000;2023-04-15T08:31:11;14.20;57.60
13093;DHT22;6612;49.568;11.000;2023-04-15T08:33:39;14.20;57.80
13093;DHT22;6612;49.568;11.000;2023-04-15T08:36:08;14.20;57.80
13093;DHT22;6612;49.568;11.000;2023-04-15T08:38:35;14.20;58.00
13093;DHT22;6612;49.568;11.000;2023-04-15T08:41:06;14.10;58.00
13093;DHT22;6612;49.568;11.000;2023-04-15T08:43:34;14.10;57.90
13093;DHT22;6612;49.568;11.000;2023-04-15T08:46:04;14.10;57.90
13093;DHT22;6612;49.568;11.000;2023-04-15T08:48:32;14.10;57.70
13093;DHT22;6612;49.568;11.000;2023-04-15T08:51:00;14.10;57.60
13093;DHT22;6612;49.568;11.000;2023-04-15T08:53:29;14.00;57.60
13093;DHT22;6612;49.568;11.000;2023-04-15T08:55:59;14.00;57.80
13093;DHT22;6612;49.568;11.000;2023-04-15T08:58:28;14.00;58.00
13093;DHT22;6612;49.568;11.000;2023-04-15T09:00:56;14.00;58.10
13093;DHT22;6612;49.568;11.000;2023-04-15T09:03:23;14.00;57.80
13093;DHT22;6612;49.568;11.000;2023-04-15T09:05:51;14.00;57.50
13093;DHT22;6612;49.568;11.000;2023-04-15T09:08:18;13.90;57.20
13093;DHT22;6612;49.568;11.000;2023-04-15T09:10:47;13.90;57.20
13093;DHT22;6612;49.568;11.000;2023-04-15T09:13:14;13.80;57.20
13093;DHT22;6612;49.568;11.000;2023-04-15T09:15:41;13.80;57.30
13093;DHT22;6612;49.568;11.000;2023-04-15T09:18:11;13.80;57.40
13093;DHT22;6612;49.568;11.000;2023-04-15T09:20:39;13.70;57.30
13093;DHT22;6612;49.568;11.000;2023-04-15T09:23:13;13.70;57.30
13093;DHT22;6612;49.568;11.000;2023-04-15T09:25:42;13.70;57.50
13093;DHT22;6612;49.568;11.000;2023-04-15T09:28:10;13.70;57.70
13093;DHT22;6612;49.568;11.000;2023-04-15T09:30:37;13.60;57.90
13093;DHT22;6612;49.568;11.000;2023-04-15T09:33:04;13.70;58.30
13093;DHT22;6612;49.568;11.000;2023-04-15T09:35:33;13.70;58.50
13093;DHT22;6612;49.568;11.000;2023-04-15T09:38:02;13.70;58.60
13093;DHT22;6612;49.568;11.000;2023-04-15T09:40:33;13.80;58.80
13093;DHT22;6612;49.568;11.000;2023-04-15T09:43:02;13.90;59.20
13093;DHT22;6612;49.568;11.000;2023-04-15T09:45:31;14.00;59.40
13093;DHT22;6612;49.568;11.000;2023-04-15T09:47:59;14.00;59.20
13093;DHT22;6612;49.568;11.000;2023-04-15T09:50:41;14.10;59.20
13093;DHT22;6612;49.568;11.000;2023-04-15T09:53:09;14.20;58.80
13093;DHT22;6612;49.568;11.000;2023-04-15T09:55:37;14.20;58.60
13093;DHT22;6612;49.568;11.000;2023-04-15T09:58:08;14.30;58.50
13093;DHT22;6612;49.568;11.000;2023-04-15T10:00:37;14.30;58.20
13093;DHT22;6612;49.568;11.000;2023-04-15T10:03:05;14.30;58.80
13093;DHT22;6612;49.568;11.000;2023-04-15T10:05:33;14.30;58.00
13093;DHT22;6612;49.568;11.000;2023-04-15T10:08:00;14.30;57.80
13093;DHT22;6612;49.568;11.000;2023-04-15T10:10:29;14.30;57.50
13093;DHT22;6612;49.568;11.000;2023-04-15T10:12:58;14.20;57.20
13093;DHT22;6612;49.568;11.000;2023-04-15T10:15:26;14.20;57.20
13093;DHT22;6612;49.568;11.000;2023-04-15T10:17:56;14.20;57.30
13093;DHT22;6612;49.568;11.000;2023-04-15T10:20:24;14.10;57.40
13093;DHT22;6612;49.568;11.000;2023-04-15T10:22:52;14.10;57.60
13093;DHT22;6612;49.568;11.000;2023-04-15T10:25:19;14.10;57.90
13093;DHT22;6612;49.568;11.000;2023-04-15T10:27:47;14.10;58.20
13093;DHT22;6612;49.568;11.000;2023-04-15T10:30:16;14.10;58.40
13093;DHT22;6612;49.568;11.000;2023-04-15T10:32:44;14.20;58.60
13093;DHT22;6612;49.568;11.000;2023-04-15T10:35:13;14.20;58.40
13093;DHT22;6612;49.568;11.000;2023-04-15T10:37:41;14.30;58.60
13093;DHT22;6612;49.568;11.000;2023-04-15T10:40:23;14.30;58.50
13093;DHT22;6612;49.568;11.000;2023-04-15T10:42:53;14.40;57.90
13093;DHT22;6612;49.568;11.000;2023-04-15T10:45:20;14.50;58.50
13093;DHT22;6612;49.568;11.000;2023-04-15T10:47:51;14.50;58.70
13093;DHT22;6612;49.568;11.000;2023-04-15T10:50:24;14.70;59.40
13093;DHT22;6612;49.568;11.000;2023-04-15T10:52:52;14.80;59.80
13093;DHT22;6612;49.568;11.000;2023-04-15T10:55:20;15.00;60.40
13093;DHT22;6612;49.568;11.000;2023-04-15T10:57:51;15.30;60.40
13093;DHT22;6612;49.568;11.000;2023-04-15T11:00:20;15.50;59.70
13093;DHT22;6612;49.568;11.000;2023-04-15T11:02:52;15.70;59.50
13093;DHT22;6612;49.568;11.000;2023-04-15T11:05:22;15.80;58.70
13093;DHT22;6612;49.568;11.000;2023-04-15T11:08:10;16.00;58.00
13093;DHT22;6612;49.568;11.000;2023-04-15T11:10:52;16.00;57.50
13093;DHT22;6612;49.568;11.000;2023-04-15T11:13:21;16.10;56.20
13093;DHT22;6612;49.568;11.000;2023-04-15T11:15:49;16.10;56.60
13093;DHT22;6612;49.568;11.000;2023-04-15T11:18:17;16.10;56.30
13093;DHT22;6612;49.568;11.000;2023-04-15T11:20:48;16.00;56.00
13093;DHT22;6612;49.568;11.000;2023-04-15T11:23:17;16.00;55.60
13093;DHT22;6612;49.568;11.000;2023-04-15T11:25:45;16.00;55.80
13093;DHT22;6612;49.568;11.000;2023-04-15T11:28:13;16.00;56.00
13093;DHT22;6612;49.568;11.000;2023-04-15T11:30:41;16.00;56.20
13093;DHT22;6612;49.568;11.000;2023-04-15T11:33:10;16.00;56.10
13093;DHT22;6612;49.568;11.000;2023-04-15T11:35:39;16.00;55.90
13093;DHT22;6612;49.568;11.000;2023-04-15T11:38:09;16.00;55.50
13093;DHT22;6612;49.568;11.000;2023-04-15T11:40:38;16.00;55.20
13093;DHT22;6612;49.568;11.000;2023-04-15T11:43:06;16.00;55.30
13093;DHT22;6612;49.568;11.000;2023-04-15T11:45:33;16.00;55.20
13093;DHT22;6612;49.568;11.000;2023-04-15T11:48:05;16.00;55.00
13093;DHT22;6612;49.568;11.000;2023-04-15T11:50:33;15.90;54.40
13093;DHT22;6612;49.568;11.000;2023-04-15T11:53:01;15.90;54.60
13093;DHT22;6612;49.568;11.000;2023-04-15T11:55:31;15.80;54.50
13093;DHT22;6612;49.568;11.000;2023-04-15T11:58:11;15.80;54.50
13093;DHT22;6612;49.568;11.000;2023-04-15T12:00:39;15.80;54.40
13093;DHT22;6612;49.568;11.000;2023-04-15T12:03:15;15.70;54.60
13093;DHT22;6612;49.568;11.000;2023-04-15T12:06:05;15.70;54.30
13093;DHT22;6612;49.568;11.000;2023-04-15T12:09:02;15.70;54.30
13093;DHT22;6612;49.568;11.000;2023-04-15T12:11:41;15.70;54.20
13093;DHT22;6612;49.568;11.000;2023-04-15T12:14:15;15.70;54.80
13093;DHT22;6612;49.568;11.000;2023-04-15T12:16:44;15.80;55.20
13093;DHT22;6612;49.568;11.000;2023-04-15T12:19:13;15.80;55.10
13093;DHT22;6612;49.568;11.000;2023-04-15T12:21:43;15.90;55.30
13093;DHT22;6612;49.568;11.000;2023-04-15T12:24:11;15.90;55.20
13093;DHT22;6612;49.568;11.000;2023-04-15T12:26:44;16.00;55.20
13093;DHT22;6612;49.568;11.000;2023-04-15T12:29:13;16.00;54.70
13093;DHT22;6612;49.568;11.000;2023-04-15T12:31:51;16.00;54.90
13093;DHT22;6612;49.568;11.000;2023-04-15T12:34:26;16.10;54.40
13093;DHT22;6612;49.568;11.000;2023-04-15T12:36:54;16.10;54.50
13093;DHT22;6612;49.568;11.000;2023-04-15T12:39:22;16.20;54.80
13093;DHT22;6612;49.568;11.000;2023-04-15T12:41:51;16.20;54.60
13093;DHT22;6612;49.568;11.000;2023-04-15T12:44:21;16.20;54.60
13093;DHT22;6612;49.568;11.000;2023-04-15T12:46:48;16.20;54.60
13093;DHT22;6612;49.568;11.000;2023-04-15T12:49:15;16.20;54.30
13093;DHT22;6612;49.568;11.000;2023-04-15T12:51:45;16.20;54.10
13093;DHT22;6612;49.568;11.000;2023-04-15T12:54:12;16.20;54.00
13093;DHT22;6612;49.568;11.000;2023-04-15T12:56:40;16.20;53.90
13093;DHT22;6612;49.568;11.000;2023-04-15T12:59:08;16.20;53.80
13093;DHT22;6612;49.568;11.000;2023-04-15T13:01:35;16.10;53.70
13093;DHT22;6612;49.568;11.000;2023-04-15T13:04:02;16.10;53.80
13093;DHT22;6612;49.568;11.000;2023-04-15T13:06:30;16.10;54.00
13093;DHT22;6612;49.568;11.000;2023-04-15T13:08:58;16.10;54.20
13093;DHT22;6612;49.568;11.000;2023-04-15T13:11:26;16.10;54.30
13093;DHT22;6612;49.568;11.000;2023-04-15T13:13:55;16.10;54.40
13093;DHT22;6612;49.568;11.000;2023-04-15T13:16:24;16.10;54.50
13093;DHT22;6612;49.568;11.000;2023-04-15T13:18:51;16.20;54.30
13093;DHT22;6612;49.568;11.000;2023-04-15T13:21:18;16.20;54.30
13093;DHT22;6612;49.568;11.000;2023-04-15T13:23:45;16.20;54.20
13093;DHT22;6612;49.568;11.000;2023-04-15T13:26:12;16.20;54.10
13093;DHT22;6612;49.568;11.000;2023-04-15T13:28:39;16.20;54.70
13093;DHT22;6612;49.568;11.000;2023-04-15T13:31:06;16.20;53.80
13093;DHT22;6612;49.568;11.000;2023-04-15T13:33:35;16.20;53.40
13093;DHT22;6612;49.568;11.000;2023-04-15T13:36:02;16.20;53.10
13093;DHT22;6612;49.568;11.000;2023-04-15T13:38:29;16.10;53.10
13093;DHT22;6612;49.568;11.000;2023-04-15T13:40:56;16.00;53.00
13093;DHT22;6612;49.568;11.000;2023-04-15T13:43:23;16.00;53.10
13093;DHT22;6612;49.568;11.000;2023-04-15T13:45:50;15.90;52.90
13093;DHT22;6612;49.568;11.000;2023-04-15T13:48:17;15.80;52.80
13093;DHT22;6612;49.568;11.000;2023-04-15T13:50:46;15.80;52.90
13093;DHT22;6612;49.568;11.000;2023-04-15T13:53:13;15.70;52.80
13093;DHT22;6612;49.568;11.000;2023-04-15T13:55:40;15.60;52.90
13093;DHT22;6612;49.568;11.000;2023-04-15T13:58:08;15.60;53.10
13093;DHT22;6612;49.568;11.000;2023-04-15T14:00:35;15.50;53.10
13093;DHT22;6612;49.568;11.000;2023-04-15T14:03:02;15.40;53.10
13093;DHT22;6612;49.568;11.000;2023-04-15T14:05:29;15.40;53.20
13093;DHT22;6612;49.568;11.000;2023-04-15T14:07:58;15.40;53.30
13093;DHT22;6612;49.568;11.000;2023-04-15T14:10:25;15.30;53.30
13093;DHT22;6612;49.568;11.000;2023-04-15T14:12:52;15.30;53.60
13093;DHT22;6612;49.568;11.000;2023-04-15T14:15:20;15.20;53.60
13093;DHT22;6612;49.568;11.000;2023-04-15T14:17:47;15.20;53.70
13093;DHT22;6612;49.568;11.000;2023-04-15T14:20:14;15.20;53.90
13093;DHT22;6612;49.568;11.000;2023-04-15T14:22:41;15.20;54.10
13093;DHT22;6612;49.568;11.000;2023-04-15T14:25:10;15.10;54.00
13093;DHT22;6612;49.568;11.000;2023-04-15T14:27:37;15.10;54.00
13093;DHT22;6612;49.568;11.000;2023-04-15T14:30:05;15.10;54.10
13093;DHT22;6612;49.568;11.000;2023-04-15T14:32:32;15.00;54.00
13093;DHT22;6612;49.568;11.000;2023-04-15T14:34:59;15.00;53.90
13093;DHT22;6612;49.568;11.000;2023-04-15T14:37:26;14.90;53.90
13093;DHT22;6612;49.568;11.000;2023-04-15T14:39:53;14.90;53.90
13093;DHT22;6612;49.568;11.000;2023-04-15T14:42:22;14.90;54.00
13093;DHT22;6612;49.568;11.000;2023-04-15T14:44:49;14.90;54.00
13093;DHT22;6612;49.568;11.000;2023-04-15T14:47:16;14.80;53.90
13093;DHT22;6612;49.568;11.000;2023-04-15T14:49:43;14.80;54.00
13093;DHT22;6612;49.568;11.000;2023-04-15T14:52:11;14.70;54.00
13093;DHT22;6612;49.568;11.000;2023-04-15T14:54:38;14.70;54.10
13093;DHT22;6612;49.568;11.000;2023-04-15T14:57:05;14.70;54.10
13093;DHT22;6612;49.568;11.000;2023-04-15T14:59:34;14.70;54.30
13093;DHT22;6612;49.568;11.000;2023-04-15T15:02:01;14.70;54.40
13093;DHT22;6612;49.568;11.000;2023-04-15T15:04:29;14.60;54.40
13093;DHT22;6612;49.568;11.000;2023-04-15T15:06:58;14.60;54.50
13093;DHT22;6612;49.568;11.000;2023-04-15T15:09:25;14.60;55.30
13093;DHT22;6612;49.568;11.000;2023-04-15T15:11:52;14.50;54.60
13093;DHT22;6612;49.568;11.000;2023-04-15T15:14:19;14.50;54.60
13093;DHT22;6612;49.568;11.000;2023-04-15T15:16:48;14.50;54.90
13093;DHT22;6612;49.568;11.000;2023-04-15T15:19:15;14.50;55.10
13093;DHT22;6612;49.568;11.000;2023-04-15T15:21:42;14.40;55.20
13093;DHT22;6612;49.568;11.000;2023-04-15T15:24:09;14.40;55.30
13093;DHT22;6612;49.568;11.000;2023-04-15T15:26:36;14.40;55.60
13093;DHT22;6612;49.568;11.000;2023-04-15T15:29:03;14.40;55.70
13093;DHT22;6612;49.568;11.000;2023-04-15T15:31:30;14.40;55.70
13093;DHT22;6612;49.568;11.000;2023-04-15T15:33:58;14.30;55.80
13093;DHT22;6612;49.568;11.000;2023-04-15T15:36:25;14.30;55.80